sensor_id;sensor_type;location;lat;lon;timestamp;P1;durP1;ratioP1;P2;durP2;ratioP2
19187;SDS011;9726;52.198;8.792;2022-08-25T05:01:48;11.60;;;4.90;;
19187;SDS011;9726;52.198;8.792;2022-08-25T05:04:19;18.10;;;5.30;;
19187;SDS011;9726;52.198;8.792;2022-08-25T05:06:54;16.33;;;4.50;;
19187;SDS011;9726;52.198;8.792;2022-08-25T05:09:22;15.30;;;5.90;;
19187;SDS011;9726;52.198;8.792;2022-08-25T05:11:50;19.53;;;5.60;;
19187;SDS011;9726;52.198;8.792;2022-08-25T05:14:19;15.10;;;4.57;;
19187;SDS011;9726;52.198;8.792;2022-08-25T05:16:52;15.13;;;4.70;;
19187;SDS011;9726;52.198;8.792;2022-08-25T05:19:20;11.80;;;4.47;;
19187;SDS011;9726;52.198;8.792;2022-08-25T05:21:49;11.13;;;4.37;;
19187;SDS011;9726;52.198;8.792;2022-08-25T05:24:16;10.67;;;4.03;;
19187;SDS011;9726;52.198;8.792;2022-08-25T05:26:44;9.73;;;4.27;;
19187;SDS011;9726;52.198;8.792;2022-08-25T05:29:11;9.27;;;4.60;;
19187;SDS011;9726;52.198;8.792;2022-08-25T05:31:39;9.60;;;4.47;;
19187;SDS011;9726;52.198;8.792;2022-08-25T05:34:15;12.00;;;5.10;;
19187;SDS011;9726;52.198;8.792;2022-08-25T05:36:44;19.43;;;4.77;;
19187;SDS011;9726;52.198;8.792;2022-08-25T05:39:11;18.53;;;5.73;;
19187;SDS011;9726;52.198;8.792;2022-08-25T05:41:38;10.07;;;4.40;;
19187;SDS011;9726;52.198;8.792;2022-08-25T05:44:06;10.43;;;4.30;;
19187;SDS011;9726;52.198;8.792;2022-08-25T05:46:33;9.97;;;4.33;;
19187;SDS011;9726;52.198;8.792;2022-08-25T05:49:01;14.13;;;4.93;;
19187;SDS011;9726;52.198;8.792;2022-08-25T05:51:28;18.73;;;4.93;;
19187;SDS011;9726;52.198;8.792;2022-08-25T05:53:55;6.83;;;3.57;;
19187;SDS011;9726;52.198;8.792;2022-08-25T05:56:23;11.27;;;4.60;;
19187;SDS011;9726;52.198;8.792;2022-08-25T05:58:50;16.83;;;4.47;;
19187;SDS011;9726;52.198;8.792;2022-08-25T06:01:19;10.73;;;4.63;;
19187;SDS011;9726;52.198;8.792;2022-08-25T06:04:08;15.60;;;4.37;;
19187;SDS011;9726;52.198;8.792;2022-08-25T06:06:36;15.67;;;4.60;;
19187;SDS011;9726;52.198;8.792;2022-08-25T06:09:04;21.83;;;4.63;;
19187;SDS011;9726;52.198;8.792;2022-08-25T06:11:35;18.40;;;4.50;;
19187;SDS011;9726;52.198;8.792;2022-08-25T06:14:03;17.23;;;4.97;;
19187;SDS011;9726;52.198;8.792;2022-08-25T06:16:30;17.97;;;4.97;;
19187;SDS011;9726;52.198;8.792;2022-08-25T06:18:58;8.60;;;5.33;;
19187;SDS011;9726;52.198;8.792;2022-08-25T06:21:26;8.83;;;4.67;;
19187;SDS011;9726;52.198;8.792;2022-08-25T06:23:54;8.40;;;4.17;;
19187;SDS011;9726;52.198;8.792;2022-08-25T06:26:21;10.07;;;4.70;;
19187;SDS011;9726;52.198;8.792;2022-08-25T06:28:49;26.17;;;5.67;;
19187;SDS011;9726;52.198;8.792;2022-08-25T06:31:17;9.07;;;4.40;;
19187;SDS011;9726;52.198;8.792;2022-08-25T06:33:45;12.33;;;4.57;;
19187;SDS011;9726;52.198;8.792;2022-08-25T06:36:13;16.30;;;4.57;;
19187;SDS011;9726;52.198;8.792;2022-08-25T06:38:40;13.77;;;4.03;;
19187;SDS011;9726;52.198;8.792;2022-08-25T06:41:08;15.03;;;3.93;;
19187;SDS011;9726;52.198;8.792;2022-08-25T06:43:39;8.73;;;4.27;;
19187;SDS011;9726;52.198;8.792;2022-08-25T06:46:15;12.30;;;4.40;;
19187;SDS011;9726;52.198;8.792;2022-08-25T06:48:44;6.43;;;3.80;;
19187;SDS011;9726;52.198;8.792;2022-08-25T06:51:13;12.07;;;4.37;;
19187;SDS011;9726;52.198;8.792;2022-08-25T06:53:42;19.90;;;4.43;;
19187;SDS011;9726;52.198;8.792;2022-08-25T06:56:09;9.37;;;4.43;;
19187;SDS011;9726;52.198;8.792;2022-08-25T06:58:37;8.27;;;4.00;;
19187;SDS011;9726;52.198;8.792;2022-08-25T07:01:08;11.67;;;4.70;;
19187;SDS011;9726;52.198;8.792;2022-08-25T07:03:58;13.33;;;4.87;;
19187;SDS011;9726;52.198;8.792;2022-08-25T07:06:26;9.47;;;4.10;;
19187;SDS011;9726;52.198;8.792;2022-08-25T07:08:54;8.47;;;4.17;;
19187;SDS011;9726;52.198;8.792;2022-08-25T07:11:22;10.60;;;5.83;;
19187;SDS011;9726;52.198;8.792;2022-08-25T07:13:49;8.77;;;4.80;;
19187;SDS011;9726;52.198;8.792;2022-08-25T07:16:17;11.27;;;4.23;;
19187;SDS011;9726;52.198;8.792;2022-08-25T07:18:46;13.07;;;5.10;;
19187;SDS011;9726;52.198;8.792;2022-08-25T07:21:14;8.87;;;4.77;;
19187;SDS011;9726;52.198;8.792;2022-08-25T07:23:41;7.80;;;4.57;;
19187;SDS011;9726;52.198;8.792;2022-08-25T07:26:18;6.07;;;4.00;;
19187;SDS011;9726;52.198;8.792;2022-08-25T07:29:03;6.70;;;4.25;;
19187;SDS011;9726;52.198;8.792;2022-08-25T07:31:33;15.35;;;5.18;;
19187;SDS011;9726;52.198;8.792;2022-08-25T07:34:00;14.57;;;5.23;;
19187;SDS011;9726;52.198;8.792;2022-08-25T07:36:46;11.00;;;5.00;;
19187;SDS011;9726;52.198;8.792;2022-08-25T07:39:13;14.10;;;5.50;;
19187;SDS011;9726;52.198;8.792;2022-08-25T07:41:42;7.65;;;4.25;;
19187;SDS011;9726;52.198;8.792;2022-08-25T07:44:11;11.95;;;4.57;;
19187;SDS011;9726;52.198;8.792;2022-08-25T07:46:39;15.95;;;6.72;;
19187;SDS011;9726;52.198;8.792;2022-08-25T07:49:07;14.80;;;4.70;;
19187;SDS011;9726;52.198;8.792;2022-08-25T07:51:43;15.68;;;5.20;;
19187;SDS011;9726;52.198;8.792;2022-08-25T07:54:30;10.52;;;5.18;;
19187;SDS011;9726;52.198;8.792;2022-08-25T07:57:00;15.73;;;4.65;;
19187;SDS011;9726;52.198;8.792;2022-08-25T07:59:28;21.77;;;4.70;;
19187;SDS011;9726;52.198;8.792;2022-08-25T08:02:05;11.25;;;4.85;;
19187;SDS011;9726;52.198;8.792;2022-08-25T08:04:34;8.63;;;4.70;;
19187;SDS011;9726;52.198;8.792;2022-08-25T08:07:02;17.35;;;5.43;;
19187;SDS011;9726;52.198;8.792;2022-08-25T08:09:37;9.82;;;5.63;;
19187;SDS011;9726;52.198;8.792;2022-08-25T08:12:04;10.73;;;5.28;;
19187;SDS011;9726;52.198;8.792;2022-08-25T08:14:32;10.65;;;5.40;;
19187;SDS011;9726;52.198;8.792;2022-08-25T08:17:03;13.02;;;5.28;;
19187;SDS011;9726;52.198;8.792;2022-08-25T08:19:31;9.88;;;5.55;;
19187;SDS011;9726;52.198;8.792;2022-08-25T08:21:58;18.83;;;6.05;;
19187;SDS011;9726;52.198;8.792;2022-08-25T08:24:28;13.40;;;6.97;;
19187;SDS011;9726;52.198;8.792;2022-08-25T08:27:16;11.50;;;5.97;;
19187;SDS011;9726;52.198;8.792;2022-08-25T08:29:44;11.00;;;6.20;;
19187;SDS011;9726;52.198;8.792;2022-08-25T08:32:11;7.82;;;5.80;;
19187;SDS011;9726;52.198;8.792;2022-08-25T08:34:40;15.02;;;6.13;;
19187;SDS011;9726;52.198;8.792;2022-08-25T08:37:09;16.65;;;6.80;;
19187;SDS011;9726;52.198;8.792;2022-08-25T08:39:38;17.45;;;6.45;;
19187;SDS011;9726;52.198;8.792;2022-08-25T08:42:10;12.23;;;7.18;;
19187;SDS011;9726;52.198;8.792;2022-08-25T08:45:10;20.67;;;7.78;;
19187;SDS011;9726;52.198;8.792;2022-08-25T08:47:45;14.02;;;7.10;;
19187;SDS011;9726;52.198;8.792;2022-08-25T08:50:23;19.92;;;6.80;;
19187;SDS011;9726;52.198;8.792;2022-08-25T08:53:10;14.55;;;7.00;;
19187;SDS011;9726;52.198;8.792;2022-08-25T08:55:48;18.15;;;8.40;;
19187;SDS011;9726;52.198;8.792;2022-08-25T09:01:51;16.77;;;8.82;;
19187;SDS011;9726;52.198;8.792;2022-08-25T09:07:03;19.30;;;8.45;;
19187;SDS011;9726;52.198;8.792;2022-08-25T09:09:36;20.63;;;9.48;;
19187;SDS011;9726;52.198;8.792;2022-08-25T09:12:11;20.25;;;7.68;;
19187;SDS011;9726;52.198;8.792;2022-08-25T09:21:23;17.20;;;7.75;;
19187;SDS011;9726;52.198;8.792;2022-08-25T09:29:09;17.17;;;7.97;;
19187;SDS011;9726;52.198;8.792;2022-08-25T09:31:42;16.23;;;8.45;;
19187;SDS011;9726;52.198;8.792;2022-08-25T09:34:11;23.70;;;7.65;;
19187;SDS011;9726;52.198;8.792;2022-08-25T09:36:43;15.73;;;7.72;;
19187;SDS011;9726;52.198;8.792;2022-08-25T09:39:14;14.80;;;7.95;;
19187;SDS011;9726;52.198;8.792;2022-08-25T09:41:45;13.30;;;7.53;;
19187;SDS011;9726;52.198;8.792;2022-08-25T09:46:54;15.18;;;7.85;;
19187;SDS011;9726;52.198;8.792;2022-08-25T09:49:35;10.32;;;8.02;;
19187;SDS011;9726;52.198;8.792;2022-08-25T09:52:23;18.30;;;8.45;;
19187;SDS011;9726;52.198;8.792;2022-08-25T09:54:54;15.15;;;9.52;;
19187;SDS011;9726;52.198;8.792;2022-08-25T09:57:30;11.63;;;7.93;;
19187;SDS011;9726;52.198;8.792;2022-08-25T10:02:38;23.83;;;11.55;;
19187;SDS011;9726;52.198;8.792;2022-08-25T10:07:50;17.98;;;8.45;;
19187;SDS011;9726;52.198;8.792;2022-08-25T10:10:29;23.33;;;8.20;;
19187;SDS011;9726;52.198;8.792;2022-08-25T10:13:00;17.15;;;8.57;;
19187;SDS011;9726;52.198;8.792;2022-08-25T10:15:33;18.35;;;8.43;;
19187;SDS011;9726;52.198;8.792;2022-08-25T10:21:02;24.00;;;9.68;;
19187;SDS011;9726;52.198;8.792;2022-08-25T10:23:33;14.40;;;8.00;;
19187;SDS011;9726;52.198;8.792;2022-08-25T10:26:04;19.27;;;9.98;;
19187;SDS011;9726;52.198;8.792;2022-08-25T10:29:24;26.42;;;8.30;;
19187;SDS011;9726;52.198;8.792;2022-08-25T10:31:34;17.88;;;8.70;;
19187;SDS011;9726;52.198;8.792;2022-08-25T10:34:10;13.73;;;7.82;;
19187;SDS011;9726;52.198;8.792;2022-08-25T10:37:26;13.07;;;8.13;;
19187;SDS011;9726;52.198;8.792;2022-08-25T10:42:55;13.63;;;8.70;;
19187;SDS011;9726;52.198;8.792;2022-08-25T10:45:36;11.48;;;7.65;;
19187;SDS011;9726;52.198;8.792;2022-08-25T10:48:23;13.15;;;7.63;;
19187;SDS011;9726;52.198;8.792;2022-08-25T10:51:14;15.93;;;7.22;;
19187;SDS011;9726;52.198;8.792;2022-08-25T10:54:21;13.10;;;7.90;;
19187;SDS011;9726;52.198;8.792;2022-08-25T10:56:54;16.85;;;7.80;;
19187;SDS011;9726;52.198;8.792;2022-08-25T11:00:17;21.17;;;8.25;;
19187;SDS011;9726;52.198;8.792;2022-08-25T11:02:35;11.52;;;7.75;;
19187;SDS011;9726;52.198;8.792;2022-08-25T11:05:27;17.60;;;8.70;;
19187;SDS011;9726;52.198;8.792;2022-08-25T11:08:07;15.65;;;8.23;;
19187;SDS011;9726;52.198;8.792;2022-08-25T11:11:23;17.67;;;7.53;;
19187;SDS011;9726;52.198;8.792;2022-08-25T11:13:45;16.65;;;7.65;;
19187;SDS011;9726;52.198;8.792;2022-08-25T11:16:17;17.48;;;7.30;;
19187;SDS011;9726;52.198;8.792;2022-08-25T11:18:55;14.75;;;7.10;;
19187;SDS011;9726;52.198;8.792;2022-08-25T11:24:41;14.80;;;7.57;;
19187;SDS011;9726;52.198;8.792;2022-08-25T11:27:12;16.73;;;8.82;;
19187;SDS011;9726;52.198;8.792;2022-08-25T11:29:44;24.50;;;7.20;;
19187;SDS011;9726;52.198;8.792;2022-08-25T11:32:21;17.77;;;8.70;;
19187;SDS011;9726;52.198;8.792;2022-08-25T11:34:50;9.77;;;7.78;;
19187;SDS011;9726;52.198;8.792;2022-08-25T11:37:20;20.42;;;7.18;;
19187;SDS011;9726;52.198;8.792;2022-08-25T11:40:09;19.88;;;7.70;;
19187;SDS011;9726;52.198;8.792;2022-08-25T11:45:21;10.27;;;6.53;;
19187;SDS011;9726;52.198;8.792;2022-08-25T11:48:09;15.25;;;6.60;;
19187;SDS011;9726;52.198;8.792;2022-08-25T11:50:57;17.88;;;6.45;;
19187;SDS011;9726;52.198;8.792;2022-08-25T11:53:35;17.63;;;6.20;;
19187;SDS011;9726;52.198;8.792;2022-08-25T11:56:08;9.52;;;6.50;;
19187;SDS011;9726;52.198;8.792;2022-08-25T11:58:39;13.20;;;6.85;;
19187;SDS011;9726;52.198;8.792;2022-08-25T12:01:11;11.63;;;6.75;;
19187;SDS011;9726;52.198;8.792;2022-08-25T12:13:05;10.15;;;6.07;;
19187;SDS011;9726;52.198;8.792;2022-08-25T12:18:06;17.70;;;6.13;;
19187;SDS011;9726;52.198;8.792;2022-08-25T12:23:29;14.70;;;6.43;;
19187;SDS011;9726;52.198;8.792;2022-08-25T12:26:00;11.30;;;6.20;;
19187;SDS011;9726;52.198;8.792;2022-08-25T12:31:27;13.00;;;6.22;;
19187;SDS011;9726;52.198;8.792;2022-08-25T12:34:12;13.43;;;6.47;;
19187;SDS011;9726;52.198;8.792;2022-08-25T12:37:03;14.93;;;7.68;;
19187;SDS011;9726;52.198;8.792;2022-08-25T12:39:43;13.20;;;7.18;;
19187;SDS011;9726;52.198;8.792;2022-08-25T12:45:10;13.93;;;6.97;;
19187;SDS011;9726;52.198;8.792;2022-08-25T12:47:46;15.40;;;6.10;;
19187;SDS011;9726;52.198;8.792;2022-08-25T12:53:21;14.57;;;5.80;;
19187;SDS011;9726;52.198;8.792;2022-08-25T12:56:02;20.52;;;6.38;;
19187;SDS011;9726;52.198;8.792;2022-08-25T12:58:53;12.90;;;6.70;;
19187;SDS011;9726;52.198;8.792;2022-08-25T13:05:00;16.73;;;6.63;;
19187;SDS011;9726;52.198;8.792;2022-08-25T13:10:45;15.57;;;6.40;;
19187;SDS011;9726;52.198;8.792;2022-08-25T13:13:36;15.93;;;6.25;;
19187;SDS011;9726;52.198;8.792;2022-08-25T13:16:54;15.27;;;6.05;;
19187;SDS011;9726;52.198;8.792;2022-08-25T13:19:24;12.63;;;5.93;;
19187;SDS011;9726;52.198;8.792;2022-08-25T13:22:00;12.43;;;5.68;;
19187;SDS011;9726;52.198;8.792;2022-08-25T13:24:42;16.52;;;6.18;;
19187;SDS011;9726;52.198;8.792;2022-08-25T13:27:26;13.05;;;5.78;;
19187;SDS011;9726;52.198;8.792;2022-08-25T13:29:55;13.93;;;5.10;;
19187;SDS011;9726;52.198;8.792;2022-08-25T13:32:28;7.30;;;5.90;;
19187;SDS011;9726;52.198;8.792;2022-08-25T13:35:10;16.75;;;5.72;;
19187;SDS011;9726;52.198;8.792;2022-08-25T13:37:43;8.80;;;5.45;;
19187;SDS011;9726;52.198;8.792;2022-08-25T13:42:57;13.85;;;5.18;;
19187;SDS011;9726;52.198;8.792;2022-08-25T13:45:29;9.38;;;5.80;;
19187;SDS011;9726;52.198;8.792;2022-08-25T13:48:08;11.10;;;5.13;;
19187;SDS011;9726;52.198;8.792;2022-08-25T13:50:48;13.80;;;5.47;;
19187;SDS011;9726;52.198;8.792;2022-08-25T13:53:24;13.20;;;5.90;;
19187;SDS011;9726;52.198;8.792;2022-08-25T13:55:57;10.85;;;6.07;;
19187;SDS011;9726;52.198;8.792;2022-08-25T13:58:28;19.40;;;6.97;;
19187;SDS011;9726;52.198;8.792;2022-08-25T14:01:29;11.45;;;7.50;;
19187;SDS011;9726;52.198;8.792;2022-08-25T14:12:27;13.50;;;6.03;;
19187;SDS011;9726;52.198;8.792;2022-08-25T14:14:59;12.88;;;6.50;;
19187;SDS011;9726;52.198;8.792;2022-08-25T14:17:28;15.50;;;6.85;;
19187;SDS011;9726;52.198;8.792;2022-08-25T14:20:13;15.63;;;6.53;;
19187;SDS011;9726;52.198;8.792;2022-08-25T14:22:55;16.20;;;6.20;;
19187;SDS011;9726;52.198;8.792;2022-08-25T14:25:27;17.33;;;6.57;;
19187;SDS011;9726;52.198;8.792;2022-08-25T14:28:02;18.33;;;6.18;;
19187;SDS011;9726;52.198;8.792;2022-08-25T14:30:33;20.33;;;6.20;;
19187;SDS011;9726;52.198;8.792;2022-08-25T14:33:04;16.88;;;6.47;;
19187;SDS011;9726;52.198;8.792;2022-08-25T14:35:32;12.57;;;6.50;;
19187;SDS011;9726;52.198;8.792;2022-08-25T14:38:02;22.98;;;8.10;;
19187;SDS011;9726;52.198;8.792;2022-08-25T14:40:34;22.27;;;6.43;;
19187;SDS011;9726;52.198;8.792;2022-08-25T14:43:02;13.38;;;5.95;;
19187;SDS011;9726;52.198;8.792;2022-08-25T14:45:30;13.98;;;5.95;;
19187;SDS011;9726;52.198;8.792;2022-08-25T14:48:00;19.15;;;6.40;;
19187;SDS011;9726;52.198;8.792;2022-08-25T14:50:36;18.17;;;6.32;;
19187;SDS011;9726;52.198;8.792;2022-08-25T14:53:08;11.70;;;5.72;;
19187;SDS011;9726;52.198;8.792;2022-08-25T14:55:36;16.70;;;5.28;;
19187;SDS011;9726;52.198;8.792;2022-08-25T14:58:05;13.55;;;5.32;;
19187;SDS011;9726;52.198;8.792;2022-08-25T15:00:34;13.13;;;5.38;;
19187;SDS011;9726;52.198;8.792;2022-08-25T15:03:13;16.05;;;6.03;;
19187;SDS011;9726;52.198;8.792;2022-08-25T15:05:43;16.05;;;5.65;;
19187;SDS011;9726;52.198;8.792;2022-08-25T15:08:13;18.38;;;6.13;;
19187;SDS011;9726;52.198;8.792;2022-08-25T15:10:59;15.10;;;5.53;;
19187;SDS011;9726;52.198;8.792;2022-08-25T15:13:26;15.10;;;5.70;;
19187;SDS011;9726;52.198;8.792;2022-08-25T15:15:54;17.60;;;5.35;;
19187;SDS011;9726;52.198;8.792;2022-08-25T15:18:23;16.20;;;5.60;;
19187;SDS011;9726;52.198;8.792;2022-08-25T15:20:51;10.20;;;5.28;;
19187;SDS011;9726;52.198;8.792;2022-08-25T15:23:19;14.40;;;5.28;;
19187;SDS011;9726;52.198;8.792;2022-08-25T15:25:48;13.18;;;6.05;;
19187;SDS011;9726;52.198;8.792;2022-08-25T15:28:18;17.83;;;7.25;;
19187;SDS011;9726;52.198;8.792;2022-08-25T15:30:48;18.23;;;6.78;;
19187;SDS011;9726;52.198;8.792;2022-08-25T15:33:15;16.60;;;6.10;;
19187;SDS011;9726;52.198;8.792;2022-08-25T15:35:43;13.73;;;6.47;;
19187;SDS011;9726;52.198;8.792;2022-08-25T15:38:11;12.02;;;5.28;;
19187;SDS011;9726;52.198;8.792;2022-08-25T15:40:39;12.13;;;5.07;;
19187;SDS011;9726;52.198;8.792;2022-08-25T15:43:06;18.42;;;6.35;;
19187;SDS011;9726;52.198;8.792;2022-08-25T15:45:34;14.32;;;5.32;;
19187;SDS011;9726;52.198;8.792;2022-08-25T15:48:02;9.93;;;5.32;;
19187;SDS011;9726;52.198;8.792;2022-08-25T15:50:32;10.75;;;5.35;;
19187;SDS011;9726;52.198;8.792;2022-08-25T15:52:59;14.38;;;6.32;;
19187;SDS011;9726;52.198;8.792;2022-08-25T15:55:26;8.68;;;5.78;;
19187;SDS011;9726;52.198;8.792;2022-08-25T15:57:54;18.58;;;6.20;;
19187;SDS011;9726;52.198;8.792;2022-08-25T16:00:21;12.13;;;5.47;;
19187;SDS011;9726;52.198;8.792;2022-08-25T16:02:49;13.18;;;5.55;;
19187;SDS011;9726;52.198;8.792;2022-08-25T16:05:16;14.18;;;5.50;;
19187;SDS011;9726;52.198;8.792;2022-08-25T16:07:51;14.90;;;5.15;;
19187;SDS011;9726;52.198;8.792;2022-08-25T16:10:18;12.95;;;5.15;;
19187;SDS011;9726;52.198;8.792;2022-08-25T16:12:47;16.08;;;5.95;;
19187;SDS011;9726;52.198;8.792;2022-08-25T16:15:14;20.60;;;6.00;;
19187;SDS011;9726;52.198;8.792;2022-08-25T16:17:41;15.20;;;5.47;;
19187;SDS011;9726;52.198;8.792;2022-08-25T16:20:14;13.63;;;6.18;;
19187;SDS011;9726;52.198;8.792;2022-08-25T16:22:43;11.30;;;5.57;;
19187;SDS011;9726;52.198;8.792;2022-08-25T16:25:10;11.57;;;6.07;;
19187;SDS011;9726;52.198;8.792;2022-08-25T16:27:38;12.55;;;5.22;;
19187;SDS011;9726;52.198;8.792;2022-08-25T16:30:09;18.50;;;6.10;;
19187;SDS011;9726;52.198;8.792;2022-08-25T16:32:43;18.45;;;5.47;;
19187;SDS011;9726;52.198;8.792;2022-08-25T16:35:12;27.98;;;6.85;;
19187;SDS011;9726;52.198;8.792;2022-08-25T16:37:39;23.92;;;7.10;;
19187;SDS011;9726;52.198;8.792;2022-08-25T16:40:08;21.45;;;6.25;;
19187;SDS011;9726;52.198;8.792;2022-08-25T16:42:40;21.00;;;5.95;;
19187;SDS011;9726;52.198;8.792;2022-08-25T16:45:07;12.80;;;5.80;;
19187;SDS011;9726;52.198;8.792;2022-08-25T16:47:35;23.40;;;6.88;;
19187;SDS011;9726;52.198;8.792;2022-08-25T16:50:04;19.25;;;5.97;;
19187;SDS011;9726;52.198;8.792;2022-08-25T16:52:36;19.27;;;6.40;;
19187;SDS011;9726;52.198;8.792;2022-08-25T16:55:25;24.13;;;6.05;;
19187;SDS011;9726;52.198;8.792;2022-08-25T16:57:52;13.02;;;6.57;;
19187;SDS011;9726;52.198;8.792;2022-08-25T17:00:21;20.13;;;6.97;;
19187;SDS011;9726;52.198;8.792;2022-08-25T17:02:54;16.58;;;6.45;;
19187;SDS011;9726;52.198;8.792;2022-08-25T17:05:27;12.43;;;5.85;;
19187;SDS011;9726;52.198;8.792;2022-08-25T17:07:55;10.90;;;5.90;;
19187;SDS011;9726;52.198;8.792;2022-08-25T17:10:44;18.48;;;6.85;;
19187;SDS011;9726;52.198;8.792;2022-08-25T17:13:11;17.60;;;6.45;;
19187;SDS011;9726;52.198;8.792;2022-08-25T17:15:40;20.17;;;6.68;;
19187;SDS011;9726;52.198;8.792;2022-08-25T17:18:10;15.77;;;6.85;;
19187;SDS011;9726;52.198;8.792;2022-08-25T17:20:39;26.02;;;8.38;;
19187;SDS011;9726;52.198;8.792;2022-08-25T17:23:08;13.73;;;6.32;;
19187;SDS011;9726;52.198;8.792;2022-08-25T17:25:39;16.10;;;5.93;;
19187;SDS011;9726;52.198;8.792;2022-08-25T17:28:08;26.92;;;6.72;;
19187;SDS011;9726;52.198;8.792;2022-08-25T17:30:38;14.73;;;7.25;;
19187;SDS011;9726;52.198;8.792;2022-08-25T17:33:06;20.33;;;6.75;;
19187;SDS011;9726;52.198;8.792;2022-08-25T17:35:37;16.25;;;6.00;;
19187;SDS011;9726;52.198;8.792;2022-08-25T17:38:05;17.90;;;6.72;;
19187;SDS011;9726;52.198;8.792;2022-08-25T17:40:34;18.00;;;7.47;;
19187;SDS011;9726;52.198;8.792;2022-08-25T17:43:01;20.42;;;6.93;;
19187;SDS011;9726;52.198;8.792;2022-08-25T17:45:29;17.65;;;6.43;;
19187;SDS011;9726;52.198;8.792;2022-08-25T17:47:56;18.05;;;6.43;;
19187;SDS011;9726;52.198;8.792;2022-08-25T17:50:24;18.73;;;6.10;;
19187;SDS011;9726;52.198;8.792;2022-08-25T17:52:52;19.20;;;7.10;;
19187;SDS011;9726;52.198;8.792;2022-08-25T17:55:19;18.83;;;5.57;;
19187;SDS011;9726;52.198;8.792;2022-08-25T17:57:49;14.20;;;6.47;;
19187;SDS011;9726;52.198;8.792;2022-08-25T18:00:17;16.02;;;6.75;;
19187;SDS011;9726;52.198;8.792;2022-08-25T18:02:46;18.08;;;6.50;;
19187;SDS011;9726;52.198;8.792;2022-08-25T18:05:14;23.13;;;6.72;;
19187;SDS011;9726;52.198;8.792;2022-08-25T18:07:41;14.20;;;6.00;;
19187;SDS011;9726;52.198;8.792;2022-08-25T18:10:09;27.05;;;5.97;;
19187;SDS011;9726;52.198;8.792;2022-08-25T18:12:37;15.30;;;7.60;;
19187;SDS011;9726;52.198;8.792;2022-08-25T18:15:05;21.08;;;6.78;;
19187;SDS011;9726;52.198;8.792;2022-08-25T18:17:33;16.92;;;6.53;;
19187;SDS011;9726;52.198;8.792;2022-08-25T18:20:05;19.42;;;6.32;;
19187;SDS011;9726;52.198;8.792;2022-08-25T18:22:34;17.58;;;6.35;;
19187;SDS011;9726;52.198;8.792;2022-08-25T18:25:03;19.17;;;6.60;;
19187;SDS011;9726;52.198;8.792;2022-08-25T18:27:32;17.67;;;6.65;;
19187;SDS011;9726;52.198;8.792;2022-08-25T18:30:00;15.40;;;7.75;;
19187;SDS011;9726;52.198;8.792;2022-08-25T18:32:28;22.48;;;7.47;;
19187;SDS011;9726;52.198;8.792;2022-08-25T18:34:56;12.07;;;6.63;;
19187;SDS011;9726;52.198;8.792;2022-08-25T18:37:23;12.68;;;6.53;;
19187;SDS011;9726;52.198;8.792;2022-08-25T18:40:09;14.50;;;6.40;;
19187;SDS011;9726;52.198;8.792;2022-08-25T18:42:50;20.83;;;6.97;;
19187;SDS011;9726;52.198;8.792;2022-08-25T18:45:21;13.95;;;6.43;;
19187;SDS011;9726;52.198;8.792;2022-08-25T18:47:49;19.05;;;7.03;;
19187;SDS011;9726;52.198;8.792;2022-08-25T18:50:22;13.52;;;6.80;;
19187;SDS011;9726;52.198;8.792;2022-08-25T18:52:50;15.48;;;7.45;;
19187;SDS011;9726;52.198;8.792;2022-08-25T18:55:20;19.27;;;6.43;;
19187;SDS011;9726;52.198;8.792;2022-08-25T18:57:49;25.00;;;6.78;;
19187;SDS011;9726;52.198;8.792;2022-08-25T19:00:17;12.63;;;7.38;;
19187;SDS011;9726;52.198;8.792;2022-08-25T19:02:48;16.70;;;7.35;;
19187;SDS011;9726;52.198;8.792;2022-08-25T19:05:16;23.80;;;7.60;;
19187;SDS011;9726;52.198;8.792;2022-08-25T19:07:45;23.85;;;8.10;;
19187;SDS011;9726;52.198;8.792;2022-08-25T19:10:18;21.40;;;7.30;;
19187;SDS011;9726;52.198;8.792;2022-08-25T19:12:49;17.25;;;7.20;;
19187;SDS011;9726;52.198;8.792;2022-08-25T19:15:17;16.17;;;6.18;;
19187;SDS011;9726;52.198;8.792;2022-08-25T19:17:50;15.73;;;7.05;;
19187;SDS011;9726;52.198;8.792;2022-08-25T19:20:19;19.55;;;7.40;;
19187;SDS011;9726;52.198;8.792;2022-08-25T19:22:47;14.43;;;7.47;;
19187;SDS011;9726;52.198;8.792;2022-08-25T19:25:16;18.33;;;7.30;;
19187;SDS011;9726;52.198;8.792;2022-08-25T19:27:43;21.23;;;8.45;;
19187;SDS011;9726;52.198;8.792;2022-08-25T19:30:12;16.48;;;7.35;;
19187;SDS011;9726;52.198;8.792;2022-08-25T19:32:40;26.08;;;8.48;;
19187;SDS011;9726;52.198;8.792;2022-08-25T19:35:14;21.75;;;8.18;;
19187;SDS011;9726;52.198;8.792;2022-08-25T19:37:48;20.00;;;9.93;;
19187;SDS011;9726;52.198;8.792;2022-08-25T19:40:17;19.05;;;7.43;;
19187;SDS011;9726;52.198;8.792;2022-08-25T19:42:46;18.83;;;7.30;;
19187;SDS011;9726;52.198;8.792;2022-08-25T19:45:20;19.27;;;8.05;;
19187;SDS011;9726;52.198;8.792;2022-08-25T19:47:49;21.17;;;8.20;;
19187;SDS011;9726;52.198;8.792;2022-08-25T19:50:19;15.35;;;7.55;;
19187;SDS011;9726;52.198;8.792;2022-08-25T19:52:46;17.27;;;7.82;;
19187;SDS011;9726;52.198;8.792;2022-08-25T19:55:15;17.00;;;7.60;;
19187;SDS011;9726;52.198;8.792;2022-08-25T19:57:44;17.40;;;8.20;;
19187;SDS011;9726;52.198;8.792;2022-08-25T20:00:14;24.95;;;8.30;;
19187;SDS011;9726;52.198;8.792;2022-08-25T20:02:44;25.00;;;7.53;;
19187;SDS011;9726;52.198;8.792;2022-08-25T20:05:13;16.02;;;7.35;;
19187;SDS011;9726;52.198;8.792;2022-08-25T20:07:50;22.88;;;7.50;;
19187;SDS011;9726;52.198;8.792;2022-08-25T20:10:18;23.35;;;7.72;;
19187;SDS011;9726;52.198;8.792;2022-08-25T20:12:45;16.92;;;7.55;;
19187;SDS011;9726;52.198;8.792;2022-08-25T20:15:13;19.45;;;7.70;;
19187;SDS011;9726;52.198;8.792;2022-08-25T20:17:42;25.65;;;8.43;;
19187;SDS011;9726;52.198;8.792;2022-08-25T20:20:12;23.63;;;8.27;;
19187;SDS011;9726;52.198;8.792;2022-08-25T20:22:40;20.38;;;7.45;;
19187;SDS011;9726;52.198;8.792;2022-08-25T20:25:09;17.25;;;8.70;;
19187;SDS011;9726;52.198;8.792;2022-08-25T20:27:46;24.10;;;8.60;;
19187;SDS011;9726;52.198;8.792;2022-08-25T20:30:16;21.52;;;10.07;;
19187;SDS011;9726;52.198;8.792;2022-08-25T20:32:44;19.42;;;7.75;;
19187;SDS011;9726;52.198;8.792;2022-08-25T20:35:11;16.00;;;8.88;;
19187;SDS011;9726;52.198;8.792;2022-08-25T20:37:40;24.80;;;12.15;;
19187;SDS011;9726;52.198;8.792;2022-08-25T20:40:10;26.25;;;9.55;;
19187;SDS011;9726;52.198;8.792;2022-08-25T20:42:40;21.58;;;9.48;;
19187;SDS011;9726;52.198;8.792;2022-08-25T20:45:10;19.60;;;9.57;;
19187;SDS011;9726;52.198;8.792;2022-08-25T20:47:38;19.38;;;9.32;;
19187;SDS011;9726;52.198;8.792;2022-08-25T20:50:07;20.88;;;11.07;;
19187;SDS011;9726;52.198;8.792;2022-08-25T20:52:35;18.08;;;9.70;;
19187;SDS011;9726;52.198;8.792;2022-08-25T20:55:08;25.67;;;9.90;;
19187;SDS011;9726;52.198;8.792;2022-08-25T20:57:36;17.65;;;9.18;;
19187;SDS011;9726;52.198;8.792;2022-08-25T21:00:06;17.63;;;9.23;;
19187;SDS011;9726;52.198;8.792;2022-08-25T21:02:34;19.42;;;10.55;;
19187;SDS011;9726;52.198;8.792;2022-08-25T21:05:02;24.15;;;10.20;;
19187;SDS011;9726;52.198;8.792;2022-08-25T21:07:30;21.33;;;8.88;;
19187;SDS011;9726;52.198;8.792;2022-08-25T21:10:01;24.77;;;9.48;;
19187;SDS011;9726;52.198;8.792;2022-08-25T21:12:29;18.55;;;8.63;;
19187;SDS011;9726;52.198;8.792;2022-08-25T21:14:57;18.95;;;8.63;;
19187;SDS011;9726;52.198;8.792;2022-08-25T21:17:24;23.60;;;8.35;;
19187;SDS011;9726;52.198;8.792;2022-08-25T21:19:51;22.95;;;8.73;;
19187;SDS011;9726;52.198;8.792;2022-08-25T21:22:19;14.13;;;7.53;;
19187;SDS011;9726;52.198;8.792;2022-08-25T21:24:47;19.67;;;7.93;;
19187;SDS011;9726;52.198;8.792;2022-08-25T21:27:14;21.45;;;9.70;;
19187;SDS011;9726;52.198;8.792;2022-08-25T21:29:42;20.05;;;7.78;;
19187;SDS011;9726;52.198;8.792;2022-08-25T21:32:21;21.90;;;9.25;;
19187;SDS011;9726;52.198;8.792;2022-08-25T21:34:55;25.05;;;9.65;;
19187;SDS011;9726;52.198;8.792;2022-08-25T21:37:24;32.80;;;9.68;;